createdAt,value
2022-08-26T04:30:46.948Z,999.30
2022-08-26T04:31:46.934Z,999.28
2022-08-26T04:32:46.913Z,999.30
2022-08-26T04:33:46.902Z,999.32
2022-08-26T04:34:46.917Z,999.31
2022-08-26T04:35:46.897Z,999.33
2022-08-26T04:36:46.879Z,999.28
2022-08-26T04:37:46.873Z,999.30
2022-08-26T04:38:46.868Z,999.32
2022-08-26T04:39:46.870Z,999.32
2022-08-26T04:40:47.011Z,999.30
2022-08-26T04:41:46.842Z,999.36
2022-08-26T04:42:46.802Z,999.40
2022-08-26T04:43:46.831Z,999.37
2022-08-26T04:44:46.778Z,999.33
2022-08-26T04:45:46.769Z,999.34
2022-08-26T04:46:46.793Z,999.33
2022-08-26T04:47:46.747Z,999.33
2022-08-26T04:48:46.738Z,999.35
2022-08-26T04:49:46.740Z,999.35
2022-08-26T04:50:49.459Z,999.29
2022-08-26T04:51:46.704Z,999.30
2022-08-26T04:52:46.697Z,999.33
2022-08-26T04:53:46.712Z,999.35
2022-08-26T04:54:46.675Z,999.37
2022-08-26T04:55:46.657Z,999.36
2022-08-26T04:56:46.693Z,999.36
2022-08-26T04:57:46.636Z,999.41
2022-08-26T04:58:46.627Z,999.38
2022-08-26T04:59:46.623Z,999.44
2022-08-26T05:00:46.615Z,999.38
2022-08-26T05:01:46.760Z,999.41
2022-08-26T05:02:46.608Z,999.43
2022-08-26T05:03:46.621Z,999.43
2022-08-26T05:04:46.583Z,999.46
2022-08-26T05:05:46.591Z,999.45
2022-08-26T05:06:46.582Z,999.48
2022-08-26T05:07:46.543Z,999.43
2022-08-26T05:08:46.528Z,999.47
2022-08-26T05:09:46.520Z,999.45
2022-08-26T05:10:46.504Z,999.44
2022-08-26T05:11:48.427Z,999.43
2022-08-26T05:12:47.507Z,999.43
2022-08-26T05:13:46.473Z,999.45
2022-08-26T05:14:46.484Z,999.44
2022-08-26T05:15:46.533Z,999.45
2022-08-26T05:16:47.736Z,999.43
2022-08-26T05:17:46.440Z,999.41
2022-08-26T05:18:46.431Z,999.44
2022-08-26T05:19:46.414Z,999.43
2022-08-26T05:20:46.404Z,999.48
2022-08-26T05:21:46.430Z,999.48
2022-08-26T05:22:46.374Z,999.51
2022-08-26T05:23:46.390Z,999.50
2022-08-26T05:24:46.390Z,999.52
2022-08-26T05:25:46.342Z,999.46
2022-08-26T05:26:46.336Z,999.49
2022-08-26T05:27:46.324Z,999.47
2022-08-26T05:28:46.317Z,999.48
2022-08-26T05:29:46.293Z,999.53
2022-08-26T05:30:46.348Z,999.50
2022-08-26T05:31:46.291Z,999.48
2022-08-26T05:32:46.336Z,999.50
2022-08-26T05:33:46.248Z,999.49
2022-08-26T05:34:46.280Z,999.50
2022-08-26T05:35:46.231Z,999.49
2022-08-26T05:36:46.218Z,999.48
2022-08-26T05:37:46.247Z,999.47
2022-08-26T05:38:46.193Z,999.47
2022-08-26T05:39:51.233Z,999.51
2022-08-26T05:40:47.196Z,999.50
2022-08-26T05:41:46.165Z,999.54
2022-08-26T05:42:46.187Z,999.53
2022-08-26T05:43:46.138Z,999.53
2022-08-26T05:44:56.108Z,999.56
2022-08-26T05:45:47.125Z,999.53
2022-08-26T05:46:46.251Z,999.59
2022-08-26T05:47:46.097Z,999.57
2022-08-26T05:48:46.098Z,999.55
2022-08-26T05:49:51.436Z,999.52
2022-08-26T05:50:47.067Z,999.60
2022-08-26T05:51:46.056Z,999.58
2022-08-26T05:52:46.059Z,999.52
2022-08-26T05:53:54.891Z,999.54
2022-08-26T05:54:47.058Z,999.57
2022-08-26T05:55:46.036Z,999.53
2022-08-26T05:56:46.000Z,999.56
2022-08-26T05:57:46.087Z,999.56
2022-08-26T05:58:46.229Z,999.59
2022-08-26T05:59:46.018Z,999.62
2022-08-26T06:00:46.007Z,999.61
2022-08-26T06:01:45.977Z,999.59
2022-08-26T06:02:48.460Z,999.63
2022-08-26T06:03:45.965Z,999.60
2022-08-26T06:04:45.928Z,999.61
2022-08-26T06:05:45.909Z,999.63
2022-08-26T06:06:45.892Z,999.68
2022-08-26T06:07:45.879Z,999.64
2022-08-26T06:08:45.888Z,999.65
2022-08-26T06:09:45.857Z,999.68
2022-08-26T06:10:45.844Z,999.69
2022-08-26T06:11:45.883Z,999.69
2022-08-26T06:12:45.835Z,999.68
2022-08-26T06:13:45.814Z,999.63
2022-08-26T06:14:45.814Z,999.66
2022-08-26T06:15:45.896Z,999.63
2022-08-26T06:16:45.777Z,999.70
2022-08-26T06:17:45.809Z,999.62
2022-08-26T06:18:45.765Z,999.60
2022-08-26T06:19:45.747Z,999.57
2022-08-26T06:20:57.329Z,999.65
2022-08-26T06:21:46.746Z,999.65
2022-08-26T06:22:45.729Z,999.62
2022-08-26T06:23:45.707Z,999.64
2022-08-26T06:24:45.711Z,999.63
2022-08-26T06:25:45.686Z,999.66
2022-08-26T06:26:46.649Z,999.65
2022-08-26T06:27:45.664Z,999.62
2022-08-26T06:28:45.836Z,999.63
2022-08-26T06:29:45.634Z,999.64
2022-08-26T06:30:45.698Z,999.65
2022-08-26T06:31:45.613Z,999.64
2022-08-26T06:32:45.602Z,999.64
2022-08-26T06:33:45.602Z,999.62
2022-08-26T06:34:45.607Z,999.68
2022-08-26T06:35:45.590Z,999.68
2022-08-26T06:36:45.565Z,999.69
2022-08-26T06:37:45.546Z,999.66
2022-08-26T06:38:45.534Z,999.71
2022-08-26T06:39:45.530Z,999.67
2022-08-26T06:40:45.527Z,999.66
2022-08-26T06:41:45.519Z,999.68
2022-08-26T06:42:45.500Z,999.67
2022-08-26T06:43:45.482Z,999.67
2022-08-26T06:44:45.469Z,999.69
2022-08-26T06:45:45.458Z,999.70
2022-08-26T06:46:45.517Z,999.72
2022-08-26T06:47:45.449Z,999.70
2022-08-26T06:48:45.451Z,999.70
2022-08-26T06:49:45.435Z,999.73
2022-08-26T06:50:45.433Z,999.75
2022-08-26T06:51:45.412Z,999.74
2022-08-26T06:52:45.408Z,999.70
2022-08-26T06:53:45.411Z,999.77
2022-08-26T06:54:45.375Z,999.76
2022-08-26T06:55:45.352Z,999.76
2022-08-26T06:56:45.342Z,999.76
2022-08-26T06:57:45.336Z,999.78
2022-08-26T06:58:45.345Z,999.74
2022-08-26T06:59:45.316Z,999.75
2022-08-26T07:00:47.337Z,999.75
2022-08-26T07:01:45.498Z,999.76
2022-08-26T07:02:47.006Z,999.75
2022-08-26T07:03:46.630Z,999.76
2022-08-26T07:04:47.935Z,999.78
2022-08-26T07:05:45.243Z,999.76
2022-08-26T07:06:45.416Z,999.73
2022-08-26T07:07:45.221Z,999.78
2022-08-26T07:08:45.212Z,999.78
2022-08-26T07:09:45.251Z,999.76
2022-08-26T07:10:45.195Z,999.83
2022-08-26T07:11:45.190Z,999.84
2022-08-26T07:12:47.075Z,999.79
2022-08-26T07:13:45.149Z,999.79
2022-08-26T07:14:47.401Z,999.76
2022-08-26T07:15:45.166Z,999.74
2022-08-26T07:16:45.116Z,999.78
2022-08-26T07:17:45.127Z,999.74
2022-08-26T07:18:45.096Z,999.75
2022-08-26T07:19:45.105Z,999.79
2022-08-26T07:20:45.083Z,999.77
2022-08-26T07:21:45.075Z,999.79
2022-08-26T07:22:45.054Z,999.80
2022-08-26T07:23:45.108Z,999.83
2022-08-26T07:24:45.055Z,999.80
2022-08-26T07:25:45.035Z,999.88
2022-08-26T07:26:45.026Z,999.83
2022-08-26T07:27:44.994Z,999.91
2022-08-26T07:28:44.997Z,999.91
2022-08-26T07:29:45.048Z,999.89
2022-08-26T07:30:44.983Z,999.89
2022-08-26T07:31:44.967Z,999.93
2022-08-26T07:32:44.990Z,999.89
2022-08-26T07:33:44.941Z,999.90
2022-08-26T07:34:44.920Z,999.98
2022-08-26T07:35:44.903Z,999.94
2022-08-26T07:36:44.900Z,999.97
2022-08-26T07:37:44.896Z,1000.00
2022-08-26T07:38:44.905Z,1000.00
2022-08-26T07:39:44.888Z,1000.02
2022-08-26T07:40:44.868Z,1000.03
2022-08-26T07:41:44.839Z,1000.06
2022-08-26T07:42:44.893Z,1000.11
2022-08-26T07:43:44.817Z,1000.06
2022-08-26T07:44:44.815Z,1000.10
2022-08-26T07:45:44.858Z,1000.09
2022-08-26T07:46:44.787Z,1000.13
2022-08-26T07:47:45.771Z,1000.10
2022-08-26T07:48:46.158Z,1000.12
2022-08-26T07:49:44.865Z,1000.05
2022-08-26T07:50:49.856Z,1000.06
2022-08-26T07:51:45.744Z,1000.09
2022-08-26T07:52:44.739Z,1000.14
2022-08-26T07:53:44.710Z,1000.05
2022-08-26T07:54:44.704Z,1000.10
2022-08-26T07:55:45.367Z,1000.10
2022-08-26T07:56:44.702Z,1000.08
2022-08-26T07:57:44.659Z,1000.05
2022-08-26T07:58:48.951Z,1000.04
2022-08-26T07:59:45.642Z,1000.11
2022-08-26T08:00:44.639Z,1000.06
2022-08-26T08:01:45.261Z,1000.03
2022-08-26T08:02:44.613Z,1000.05
2022-08-26T08:03:44.596Z,1000.11
2022-08-26T08:04:44.630Z,1000.10
2022-08-26T08:05:46.393Z,1000.10
2022-08-26T08:06:44.591Z,1000.09
2022-08-26T08:07:45.582Z,1000.11
2022-08-26T08:08:44.544Z,1000.07
2022-08-26T08:09:44.552Z,1000.08
2022-08-26T08:10:44.511Z,1000.10
2022-08-26T08:11:44.525Z,1000.12
2022-08-26T08:12:44.519Z,1000.11
2022-08-26T08:13:44.491Z,1000.08
2022-08-26T08:14:44.510Z,1000.17
2022-08-26T08:15:44.460Z,1000.11
2022-08-26T08:16:46.888Z,1000.10
2022-08-26T08:17:44.440Z,1000.10
2022-08-26T08:18:44.496Z,1000.11
2022-08-26T08:19:44.419Z,1000.07
2022-08-26T08:20:47.638Z,1000.12
2022-08-26T08:21:45.406Z,1000.09
2022-08-26T08:22:44.404Z,1000.09
2022-08-26T08:23:44.406Z,1000.13
2022-08-26T08:24:44.388Z,1000.08
2022-08-26T08:25:44.356Z,1000.12
2022-08-26T08:26:44.364Z,1000.10
2022-08-26T08:27:44.347Z,1000.11
2022-08-26T08:28:44.385Z,1000.13
2022-08-26T08:29:44.328Z,1000.15
2022-08-26T08:30:44.368Z,1000.09
2022-08-26T08:32:00.001Z,1000.14
2022-08-26T08:32:45.278Z,1000.16
2022-08-26T08:33:44.269Z,1000.13
2022-08-26T08:35:44.242Z,1000.15
2022-08-26T08:36:44.246Z,1000.17
2022-08-26T08:37:44.231Z,1000.14
2022-08-26T08:38:44.220Z,1000.17
2022-08-26T08:39:44.222Z,1000.16
2022-08-26T08:40:44.192Z,1000.17
2022-08-26T08:41:44.180Z,1000.16
2022-08-26T08:42:44.218Z,1000.19
2022-08-26T08:43:44.156Z,1000.17
2022-08-26T08:44:44.177Z,1000.18
2022-08-26T08:45:47.073Z,1000.20
2022-08-26T08:46:44.125Z,1000.15
2022-08-26T08:47:44.113Z,1000.15
2022-08-26T08:48:44.102Z,1000.13
2022-08-26T08:49:44.093Z,1000.19
2022-08-26T08:50:44.093Z,1000.18
2022-08-26T08:51:44.071Z,1000.18
2022-08-26T08:52:44.076Z,1000.16
2022-08-26T08:53:44.047Z,1000.10
2022-08-26T08:54:44.047Z,1000.14
2022-08-26T08:55:44.022Z,1000.12
2022-08-26T08:56:44.034Z,1000.16
2022-08-26T08:57:44.003Z,1000.14
2022-08-26T08:58:43.988Z,1000.14
2022-08-26T08:59:44.017Z,1000.16
2022-08-26T09:00:43.970Z,1000.16
2022-08-26T09:01:43.977Z,1000.14
2022-08-26T09:02:43.993Z,1000.17
2022-08-26T09:03:44.862Z,1000.16
2022-08-26T09:04:43.960Z,1000.17
2022-08-26T09:05:48.519Z,1000.15
2022-08-26T09:06:44.965Z,1000.16
2022-08-26T09:07:43.897Z,1000.16
2022-08-26T09:08:43.897Z,1000.16
2022-08-26T09:09:44.393Z,1000.16
2022-08-26T09:10:43.879Z,1000.18
2022-08-26T09:11:43.845Z,1000.17
2022-08-26T09:12:43.829Z,1000.22
2022-08-26T09:13:43.838Z,1000.21
2022-08-26T09:14:43.812Z,1000.21
2022-08-26T09:15:43.888Z,1000.20
2022-08-26T09:16:43.850Z,1000.19
2022-08-26T09:17:43.784Z,1000.22
2022-08-26T09:18:46.176Z,1000.22
2022-08-26T09:19:43.765Z,1000.23
2022-08-26T09:20:43.767Z,1000.25
2022-08-26T09:21:43.760Z,1000.20
2022-08-26T09:22:44.307Z,1000.19
2022-08-26T09:23:43.723Z,1000.17
2022-08-26T09:24:48.219Z,1000.25
2022-08-26T09:25:44.822Z,1000.26
2022-08-26T09:26:43.717Z,1000.25
2022-08-26T09:27:43.695Z,1000.25
2022-08-26T09:28:43.701Z,1000.22
2022-08-26T09:29:43.656Z,1000.23
2022-08-26T09:30:43.692Z,1000.23
2022-08-26T09:31:43.633Z,1000.22
2022-08-26T09:32:43.642Z,1000.21
2022-08-26T09:33:44.612Z,1000.19
2022-08-26T09:34:43.682Z,1000.17
2022-08-26T09:35:43.591Z,1000.18
2022-08-26T09:36:43.587Z,1000.24
2022-08-26T09:37:43.594Z,1000.25
2022-08-26T09:38:43.565Z,1000.24
2022-08-26T09:39:43.570Z,1000.26
2022-08-26T09:40:43.534Z,1000.23
2022-08-26T09:41:43.544Z,1000.23
2022-08-26T09:42:43.516Z,1000.21
2022-08-26T09:43:43.522Z,1000.24
2022-08-26T09:44:43.488Z,1000.27
2022-08-26T09:45:50.173Z,1000.25
2022-08-26T09:46:44.477Z,1000.26
2022-08-26T09:47:43.497Z,1000.22
2022-08-26T09:48:43.452Z,1000.25
2022-08-26T09:49:43.444Z,1000.23
2022-08-26T09:50:43.449Z,1000.27
2022-08-26T09:51:43.418Z,1000.25
2022-08-26T09:52:43.411Z,1000.28
2022-08-26T09:53:43.400Z,1000.30
2022-08-26T09:54:43.392Z,1000.26
2022-08-26T09:55:43.385Z,1000.26
2022-08-26T09:56:43.392Z,1000.24
2022-08-26T09:57:43.348Z,1000.27
2022-08-26T09:58:43.339Z,1000.26
2022-08-26T09:59:43.365Z,1000.29
2022-08-26T10:00:43.326Z,1000.31
2022-08-26T10:01:43.595Z,1000.25
2022-08-26T10:02:47.677Z,1000.27
2022-08-26T10:03:44.395Z,1000.29
2022-08-26T10:04:43.324Z,1000.24
2022-08-26T10:05:43.270Z,1000.25
2022-08-26T10:06:43.257Z,1000.27
2022-08-26T10:07:43.340Z,1000.24
2022-08-26T10:08:44.100Z,1000.24
2022-08-26T10:09:43.229Z,1000.29
2022-08-26T10:10:44.636Z,1000.23
2022-08-26T10:11:43.216Z,1000.26
2022-08-26T10:12:43.192Z,1000.23
2022-08-26T10:13:43.207Z,1000.23
2022-08-26T10:15:48.625Z,1000.23
2022-08-26T10:16:44.214Z,1000.24
2022-08-26T10:17:43.151Z,1000.22
2022-08-26T10:18:43.127Z,1000.22
2022-08-26T10:19:57.078Z,1000.20
2022-08-26T10:20:44.374Z,1000.26
2022-08-26T10:21:43.126Z,1000.23
2022-08-26T10:22:43.127Z,1000.24
2022-08-26T10:23:43.127Z,1000.22
2022-08-26T10:24:43.061Z,1000.23
2022-08-26T10:25:43.052Z,1000.27
2022-08-26T10:26:43.045Z,1000.25
2022-08-26T10:27:52.695Z,1000.26
2022-08-26T10:28:44.422Z,1000.23
2022-08-26T10:29:43.015Z,1000.21
2022-08-26T10:30:43.417Z,1000.22
2022-08-26T10:31:42.998Z,1000.17
2022-08-26T10:32:42.993Z,1000.20
2022-08-26T10:33:42.978Z,1000.21
2022-08-26T10:34:42.952Z,1000.20
2022-08-26T10:35:42.942Z,1000.16
2022-08-26T10:37:15.012Z,1000.20
2022-08-26T10:37:43.931Z,1000.17
2022-08-26T10:38:44.251Z,1000.13
2022-08-26T10:39:42.946Z,1000.20
2022-08-26T10:40:42.995Z,1000.16
2022-08-26T10:41:42.874Z,1000.18
2022-08-26T10:42:42.878Z,1000.13
2022-08-26T10:43:42.889Z,1000.14
2022-08-26T10:44:43.703Z,1000.10
2022-08-26T10:45:42.890Z,1000.14
2022-08-26T10:46:42.845Z,1000.12
2022-08-26T10:47:42.817Z,1000.15
2022-08-26T10:48:42.817Z,1000.11
2022-08-26T10:49:42.811Z,1000.13
2022-08-26T10:50:42.792Z,1000.08
2022-08-26T10:51:42.795Z,1000.09
2022-08-26T10:52:42.781Z,1000.11
2022-08-26T10:53:44.485Z,1000.15
2022-08-26T10:54:42.746Z,1000.13
2022-08-26T10:55:42.727Z,1000.12
2022-08-26T10:56:42.714Z,1000.12
2022-08-26T10:57:42.719Z,1000.12
2022-08-26T10:58:42.713Z,1000.09
2022-08-26T10:59:42.683Z,1000.10
2022-08-26T11:00:44.010Z,1000.14
2022-08-26T11:01:42.720Z,1000.06
2022-08-26T11:02:47.078Z,1000.11
2022-08-26T11:03:42.638Z,1000.10
2022-08-26T11:04:47.529Z,1000.08
2022-08-26T11:05:43.615Z,1000.04
2022-08-26T11:06:42.607Z,1000.09
2022-08-26T11:07:42.635Z,1000.13
2022-08-26T11:08:42.594Z,1000.13
2022-08-26T11:09:42.578Z,1000.07
2022-08-26T11:10:42.573Z,1000.11
2022-08-26T11:11:42.586Z,1000.09
2022-08-26T11:12:42.544Z,1000.03
2022-08-26T11:13:42.534Z,1000.06
2022-08-26T11:14:58.409Z,1000.05
2022-08-26T11:15:43.531Z,1000.03
2022-08-26T11:16:43.441Z,1000.08
2022-08-26T11:17:42.495Z,1000.09
2022-08-26T11:18:42.481Z,1000.03
2022-08-26T11:20:01.671Z,1000.00
2022-08-26T11:20:43.453Z,999.99
2022-08-26T11:21:42.458Z,1000.03
2022-08-26T11:22:47.962Z,1000.01
2022-08-26T11:23:43.420Z,1000.00
2022-08-26T11:24:42.410Z,1000.06
2022-08-26T11:25:42.437Z,1000.00
2022-08-26T11:26:55.483Z,1000.01
2022-08-26T11:27:43.381Z,1000.00
2022-08-26T11:28:44.269Z,1000.00
2022-08-26T11:29:42.360Z,1000.01
2022-08-26T11:30:42.372Z,1000.03
2022-08-26T11:31:42.392Z,1000.01
2022-08-26T11:32:42.328Z,1000.03
2022-08-26T11:33:42.320Z,1000.01
2022-08-26T11:34:42.323Z,999.98
2022-08-26T11:35:42.296Z,1000.02
2022-08-26T11:36:42.292Z,999.98
2022-08-26T11:37:42.283Z,999.99
2022-08-26T11:38:42.265Z,999.95
2022-08-26T11:39:45.825Z,999.98
2022-08-26T11:40:42.365Z,1000.01
2022-08-26T11:41:42.232Z,999.98
2022-08-26T11:42:42.630Z,1000.00
2022-08-26T11:43:42.216Z,1000.03
2022-08-26T11:44:42.213Z,1000.01
2022-08-26T11:45:43.218Z,1000.03
2022-08-26T11:46:42.182Z,1000.10
2022-08-26T11:47:42.165Z,1000.05
2022-08-26T11:48:42.179Z,1000.05
2022-08-26T11:49:42.150Z,1000.07
2022-08-26T11:50:42.136Z,1000.04
2022-08-26T11:51:45.218Z,1000.06
2022-08-26T11:52:43.137Z,1000.08
2022-08-26T11:53:42.112Z,1000.07
2022-08-26T11:54:42.137Z,1000.09
2022-08-26T11:55:42.077Z,1000.08
2022-08-26T11:56:42.070Z,1000.05
2022-08-26T11:57:42.071Z,1000.03
2022-08-26T11:58:42.093Z,1000.00
2022-08-26T11:59:42.041Z,1000.00
2022-08-26T12:00:45.580Z,1000.04
2022-08-26T12:01:42.033Z,1000.01
2022-08-26T12:02:42.011Z,999.99
2022-08-26T12:03:42.083Z,1000.02
2022-08-26T12:04:42.052Z,999.99
2022-08-26T12:05:41.971Z,999.99
2022-08-26T12:06:44.983Z,1000.02
2022-08-26T12:07:42.701Z,999.96
2022-08-26T12:08:41.939Z,999.93
2022-08-26T12:09:41.941Z,999.94
2022-08-26T12:10:41.953Z,999.97
2022-08-26T12:11:41.916Z,999.89
2022-08-26T12:12:41.903Z,999.95
2022-08-26T12:13:41.908Z,999.89
2022-08-26T12:14:41.890Z,999.88
2022-08-26T12:15:41.876Z,999.88
2022-08-26T12:16:42.028Z,999.90
2022-08-26T12:17:41.836Z,999.95
2022-08-26T12:18:41.825Z,999.99
2022-08-26T12:19:41.829Z,999.98
2022-08-26T12:20:41.822Z,999.99
2022-08-26T12:21:41.800Z,999.99
2022-08-26T12:22:41.810Z,999.94
2022-08-26T12:23:43.355Z,999.98
2022-08-26T12:24:41.797Z,999.96
2022-08-26T12:25:41.754Z,999.93
2022-08-26T12:26:41.851Z,999.94
2022-08-26T12:27:41.734Z,999.87
2022-08-26T12:28:41.729Z,999.88
2022-08-26T12:29:41.706Z,999.89
2022-08-26T12:30:41.707Z,999.83
2022-08-26T12:31:41.784Z,999.87
2022-08-26T12:32:57.554Z,999.86
2022-08-26T12:33:42.682Z,999.89
2022-08-26T12:34:41.658Z,999.87
2022-08-26T12:35:41.700Z,999.84
2022-08-26T12:36:41.659Z,999.85
2022-08-26T12:37:41.649Z,999.84
2022-08-26T12:38:41.622Z,999.85
2022-08-26T12:39:41.622Z,999.85
2022-08-26T12:40:41.599Z,999.85
2022-08-26T12:41:41.746Z,999.87
2022-08-26T12:42:41.599Z,999.90
2022-08-26T12:43:41.567Z,999.81
2022-08-26T12:44:41.556Z,999.80
2022-08-26T12:45:42.568Z,999.78
2022-08-26T12:46:41.568Z,999.79
2022-08-26T12:47:43.556Z,999.79
2022-08-26T12:48:41.503Z,999.77
2022-08-26T12:49:41.524Z,999.76
2022-08-26T12:50:41.499Z,999.79
2022-08-26T12:51:41.485Z,999.79
2022-08-26T12:52:41.466Z,999.77
2022-08-26T12:53:41.450Z,999.76
2022-08-26T12:54:41.460Z,999.80
2022-08-26T12:55:41.431Z,999.73
2022-08-26T12:56:41.455Z,999.73
2022-08-26T12:57:41.415Z,999.76
2022-08-26T12:58:41.412Z,999.73
2022-08-26T12:59:41.386Z,999.66
2022-08-26T13:00:41.558Z,999.69
2022-08-26T13:01:41.461Z,999.63
2022-08-26T13:02:41.360Z,999.67
2022-08-26T13:03:41.402Z,999.65
2022-08-26T13:04:41.336Z,999.64
2022-08-26T13:05:41.324Z,999.66
2022-08-26T13:06:41.350Z,999.63
2022-08-26T13:07:41.305Z,999.69
2022-08-26T13:08:41.290Z,999.68
2022-08-26T13:09:41.298Z,999.68
2022-08-26T13:10:41.274Z,999.70
2022-08-26T13:11:41.269Z,999.72
2022-08-26T13:12:41.276Z,999.72
2022-08-26T13:13:41.234Z,999.71
2022-08-26T13:14:41.226Z,999.70
2022-08-26T13:15:41.210Z,999.74
2022-08-26T13:16:41.275Z,999.70
2022-08-26T13:17:41.232Z,999.70
2022-08-26T13:18:41.194Z,999.72
2022-08-26T13:19:41.168Z,999.76
2022-08-26T13:20:41.166Z,999.73
2022-08-26T13:21:41.167Z,999.74
2022-08-26T13:23:42.640Z,999.73
2022-08-26T13:24:41.112Z,999.70
2022-08-26T13:25:41.144Z,999.65
2022-08-26T13:26:41.130Z,999.66
2022-08-26T13:27:41.100Z,999.58
2022-08-26T13:28:41.070Z,999.58
2022-08-26T13:29:41.080Z,999.57
2022-08-26T13:30:41.044Z,999.62
2022-08-26T13:31:41.234Z,999.54
2022-08-26T13:32:41.021Z,999.54
2022-08-26T13:33:41.018Z,999.56
2022-08-26T13:34:41.085Z,999.52
2022-08-26T13:35:41.002Z,999.57
2022-08-26T13:36:41.016Z,999.54
2022-08-26T13:37:41.018Z,999.59
2022-08-26T13:38:40.961Z,999.52
2022-08-26T13:39:40.972Z,999.51
2022-08-26T13:40:40.987Z,999.46
2022-08-26T13:41:40.943Z,999.45
2022-08-26T13:42:43.857Z,999.44
2022-08-26T13:43:40.906Z,999.46
2022-08-26T13:44:40.899Z,999.45
2022-08-26T13:45:40.900Z,999.45
2022-08-26T13:46:41.049Z,999.42
2022-08-26T13:47:40.864Z,999.46
2022-08-26T13:48:41.091Z,999.43
2022-08-26T13:49:40.841Z,999.42
2022-08-26T13:50:40.854Z,999.40
2022-08-26T13:51:40.842Z,999.45
2022-08-26T13:52:40.824Z,999.41
2022-08-26T13:53:41.604Z,999.40
2022-08-26T13:54:40.783Z,999.42
2022-08-26T13:55:40.787Z,999.46
2022-08-26T13:56:40.774Z,999.51
2022-08-26T13:57:40.783Z,999.44
2022-08-26T13:58:40.779Z,999.49
2022-08-26T13:59:40.731Z,999.48
2022-08-26T14:00:40.748Z,999.47
2022-08-26T14:01:40.727Z,999.50
2022-08-26T14:02:40.693Z,999.45
2022-08-26T14:03:40.760Z,999.47
2022-08-26T14:04:40.671Z,999.41
2022-08-26T14:05:40.670Z,999.51
2022-08-26T14:06:40.668Z,999.48
2022-08-26T14:07:40.658Z,999.50
2022-08-26T14:08:40.637Z,999.53
2022-08-26T14:09:40.643Z,999.51
2022-08-26T14:10:40.694Z,999.52
2022-08-26T14:11:54.449Z,999.53
2022-08-26T14:12:41.616Z,999.49
2022-08-26T14:13:40.576Z,999.50
2022-08-26T14:14:40.565Z,999.53
2022-08-26T14:15:40.565Z,999.54
2022-08-26T14:16:58.849Z,999.54
2022-08-26T14:17:41.538Z,999.46
2022-08-26T14:18:42.182Z,999.52
2022-08-26T14:19:40.590Z,999.51
2022-08-26T14:20:40.502Z,999.50
2022-08-26T14:21:40.489Z,999.42
2022-08-26T14:22:43.712Z,999.46
2022-08-26T14:23:41.492Z,999.41
2022-08-26T14:24:40.457Z,999.38
2022-08-26T14:25:40.449Z,999.39
2022-08-26T14:26:40.434Z,999.38
2022-08-26T14:27:40.464Z,999.37
2022-08-26T14:28:40.424Z,999.35
2022-08-26T14:29:40.403Z,999.33
2022-08-26T14:30:40.399Z,999.36
2022-08-26T14:31:40.440Z,999.36
2022-08-26T14:32:40.368Z,999.39
2022-08-26T14:33:40.414Z,999.39
2022-08-26T14:34:40.351Z,999.39
2022-08-26T14:35:40.355Z,999.48
2022-08-26T14:36:41.325Z,999.40
2022-08-26T14:37:40.317Z,999.40
2022-08-26T14:38:40.301Z,999.43
2022-08-26T14:39:40.332Z,999.35
2022-08-26T14:40:40.280Z,999.38
2022-08-26T14:41:40.274Z,999.40
2022-08-26T14:42:40.256Z,999.41
2022-08-26T14:43:40.249Z,999.39
2022-08-26T14:44:40.255Z,999.36
2022-08-26T14:46:40.260Z,999.34
2022-08-26T14:47:40.219Z,999.37
2022-08-26T14:48:40.191Z,999.39
2022-08-26T14:49:40.197Z,999.40
2022-08-26T14:50:40.173Z,999.37
2022-08-26T14:51:40.179Z,999.32
2022-08-26T14:52:40.151Z,999.36
2022-08-26T14:53:40.142Z,999.39
2022-08-26T14:54:40.169Z,999.40
2022-08-26T14:55:40.116Z,999.43
2022-08-26T14:56:40.126Z,999.42
2022-08-26T14:57:40.111Z,999.46
2022-08-26T14:58:40.101Z,999.43
2022-08-26T14:59:40.082Z,999.44
2022-08-26T15:00:40.065Z,999.49
2022-08-26T15:01:40.159Z,999.48
2022-08-26T15:02:40.153Z,999.51
2022-08-26T15:03:40.033Z,999.48
2022-08-26T15:04:40.023Z,999.47
2022-08-26T15:05:40.025Z,999.47
2022-08-26T15:06:40.003Z,999.43
2022-08-26T15:07:39.988Z,999.43
2022-08-26T15:08:39.976Z,999.45
2022-08-26T15:09:40.006Z,999.45
2022-08-26T15:10:39.983Z,999.49
2022-08-26T15:11:39.945Z,999.47
2022-08-26T15:12:39.994Z,999.42
2022-08-26T15:13:39.917Z,999.45
2022-08-26T15:14:39.914Z,999.40
2022-08-26T15:15:39.945Z,999.45
2022-08-26T15:16:39.911Z,999.44
2022-08-26T15:17:39.879Z,999.43
2022-08-26T15:18:39.882Z,999.40
2022-08-26T15:19:39.868Z,999.39
2022-08-26T15:20:39.846Z,999.42
2022-08-26T15:21:39.834Z,999.39
2022-08-26T15:22:39.875Z,999.40
2022-08-26T15:23:39.823Z,999.36
2022-08-26T15:24:39.837Z,999.32
2022-08-26T15:25:39.804Z,999.32
2022-08-26T15:26:39.785Z,999.29
2022-08-26T15:28:49.966Z,999.28
2022-08-26T15:29:49.970Z,999.23
2022-08-26T15:30:49.973Z,999.29
2022-08-26T15:31:49.938Z,999.23
2022-08-26T15:32:49.929Z,999.26
2022-08-26T15:33:49.916Z,999.24
2022-08-26T15:34:49.907Z,999.23
2022-08-26T15:35:49.919Z,999.22
2022-08-26T15:36:49.889Z,999.19
2022-08-26T15:38:49.863Z,999.19
2022-08-26T15:39:49.959Z,999.20
2022-08-26T15:40:49.859Z,999.22
2022-08-26T15:41:49.830Z,999.23
2022-08-26T15:42:57.478Z,999.25
2022-08-26T15:43:50.813Z,999.27
2022-08-26T15:44:49.821Z,999.24
2022-08-26T15:45:49.790Z,999.22
2022-08-26T15:46:49.845Z,999.20
2022-08-26T15:48:00.791Z,999.20
2022-08-26T15:48:50.760Z,999.23
2022-08-26T15:49:49.743Z,999.17
2022-08-26T15:50:49.756Z,999.24
2022-08-26T15:51:49.732Z,999.22
2022-08-26T15:52:49.738Z,999.26
2022-08-26T15:53:49.743Z,999.25
2022-08-26T15:54:49.692Z,999.22
2022-08-26T15:55:49.674Z,999.27
2022-08-26T15:56:49.679Z,999.28
2022-08-26T15:57:49.676Z,999.28
2022-08-26T15:58:49.659Z,999.25
2022-08-26T15:59:49.629Z,999.22
2022-08-26T16:00:49.631Z,999.19
2022-08-26T16:01:49.675Z,999.20
2022-08-26T16:02:49.599Z,999.21
2022-08-26T16:03:49.596Z,999.17
2022-08-26T16:04:49.661Z,999.13
2022-08-26T16:05:49.660Z,999.10
2022-08-26T16:06:49.567Z,999.13
2022-08-26T16:07:49.548Z,999.11
2022-08-26T16:08:49.546Z,999.06
2022-08-26T16:09:54.042Z,999.05
2022-08-26T16:10:50.903Z,999.00
2022-08-26T16:11:49.513Z,999.08
2022-08-26T16:12:49.494Z,999.06
2022-08-26T16:13:49.482Z,999.04
2022-08-26T16:15:58.774Z,999.08
2022-08-26T16:16:58.711Z,999.10
2022-08-26T16:17:58.686Z,999.08
2022-08-26T16:18:58.689Z,999.09
2022-08-26T16:19:58.663Z,999.07
2022-08-26T16:21:13.141Z,999.10
2022-08-26T16:21:59.649Z,999.13
2022-08-26T16:22:58.645Z,999.09
2022-08-26T16:23:58.646Z,999.12
2022-08-26T16:24:58.622Z,999.05
2022-08-26T16:25:58.601Z,999.09
2022-08-26T16:26:58.594Z,999.06
2022-08-26T16:27:58.574Z,999.07
2022-08-26T16:28:58.582Z,999.10
2022-08-26T16:29:58.576Z,999.12
2022-08-26T16:30:58.616Z,999.14
2022-08-26T16:31:58.538Z,999.19
2022-08-26T16:32:58.527Z,999.19
2022-08-26T16:33:58.509Z,999.21
2022-08-26T16:34:58.524Z,999.22
2022-08-26T16:35:58.493Z,999.21
2022-08-26T16:36:58.492Z,999.24
2022-08-26T16:37:58.497Z,999.20
2022-08-26T16:38:58.476Z,999.22
2022-08-26T16:39:58.462Z,999.23
2022-08-26T16:40:58.447Z,999.21
2022-08-26T16:41:58.440Z,999.22
2022-08-26T16:42:58.416Z,999.20
2022-08-26T16:43:58.424Z,999.16
2022-08-26T16:44:58.397Z,999.19
2022-08-26T16:45:58.408Z,999.14
2022-08-26T16:46:58.678Z,999.16
2022-08-26T16:47:58.361Z,999.22
2022-08-26T16:48:58.348Z,999.22
2022-08-26T16:49:58.354Z,999.26
2022-08-26T16:50:58.331Z,999.22
2022-08-26T16:51:58.325Z,999.21
2022-08-26T16:52:58.392Z,999.24
2022-08-26T16:53:58.309Z,999.19
2022-08-26T16:54:58.289Z,999.25
2022-08-26T16:55:58.298Z,999.21
2022-08-26T16:56:58.274Z,999.24
2022-08-26T16:57:58.251Z,999.22